Altdorf, Wisconsin
Current Conditions -  °F | °C
As of 12:54 AM on Saturday 25 Oct 2014 (Local Time) from KISW Reporting Station
Haze Haze  
Wind Chill: 13°   Ceiling: 200
Heat Index: 13°   Visibility: 3mi
Dew Point: 12°   Wind: 6mph
Humidity: 96%   Direction: 250°WSW
Pressure: 29.87"   Gusts: NA
Location:  44.4583°N, 90.0009°W
Report Text: KISW 250554Z AUTO 25005KT 3SM BR OVC002 13/12 A2987 RMK AO2 SLP116 T01280122 10139 20128 401560078 58008
Loading
Personal Weather Stations






























Interactive Weather Map
Tropical Storm Tracking
New forecast layout! Learn more

10-Day Weather Forecast

Advertisements
Track Severe Weather on mobile